Time;durP1;ratioP1;P1;durP2;ratioP2;P2;SDS_P1;SDS_P2;PMS_P1;PMS_P2;Temp;Humidity;BMP_temperature;BMP_pressure;BME280_temperature;BME280_humidity;BME280_pressure;Samples;Min_cycle;Max_cycle;Signal;HPM_P1;HPM_P2
2022/04/19 00:00:35;;;;;;;388.77;114.87;;;;;;;;;;5030052;28;20203;-63
2022/04/19 00:03:02;;;;;;;391.48;112.47;;;;;;;;;;5031202;28;20431;-63
2022/04/19 00:05:28;;;;;;;390.05;114.95;;;;;;;;;;5031607;28;20176;-63
2022/04/19 00:07:54;;;;;;;362.08;102.28;;;;;;;;;;5031588;28;20615;-63
2022/04/19 00:10:20;;;;;;;388.77;116.37;;;;;;;;;;5030305;28;20208;-61
2022/04/19 00:12:47;;;;;;;381.27;112.00;;;;;;;;;;5033141;28;20462;-62
2022/04/19 00:15:15;;;;;;;380.30;112.57;;;;;;;;;;5035542;28;21173;-63
2022/04/19 00:17:41;;;;;;;367.65;108.50;;;;;;;;;;5035417;28;20164;-63
2022/04/19 00:20:07;;;;;;;351.83;111.33;;;;;;;;;;5058876;22;20622;-62
2022/04/19 00:22:33;;;;;;;346.25;103.60;;;;;;;;;;5014410;28;20445;-63
2022/04/19 00:24:59;;;;;;;343.63;103.07;;;;;;;;;;5021333;28;20248;-63
2022/04/19 00:27:25;;;;;;;334.33;104.30;;;;;;;;;;5015105;28;20183;-63
2022/04/19 00:29:53;;;;;;;355.05;102.78;;;;;;;;;;5014831;28;20642;-63
2022/04/19 00:32:20;;;;;;;347.60;101.25;;;;;;;;;;5014635;28;20213;-63
2022/04/19 00:34:46;;;;;;;324.63;101.97;;;;;;;;;;5014521;28;20177;-63
2022/04/19 00:37:12;;;;;;;349.92;107.32;;;;;;;;;;5014479;28;20253;-63
2022/04/19 00:39:38;;;;;;;355.57;102.07;;;;;;;;;;5014977;28;20605;-63
2022/04/19 00:42:04;;;;;;;346.37;97.67;;;;;;;;;;5013372;28;20978;-63
2022/04/19 00:44:30;;;;;;;289.40;92.65;;;;;;;;;;5014708;28;20932;-63
2022/04/19 00:46:56;;;;;;;323.48;95.38;;;;;;;;;;5014634;28;20181;-63
2022/04/19 00:49:22;;;;;;;335.07;93.67;;;;;;;;;;5014658;28;20165;-63
2022/04/19 00:51:48;;;;;;;349.43;96.80;;;;;;;;;;5014333;28;20428;-63
2022/04/19 00:54:15;;;;;;;346.83;108.05;;;;;;;;;;5014583;28;20546;-63
2022/04/19 00:56:41;;;;;;;336.52;94.15;;;;;;;;;;5014608;28;20177;-63
2022/04/19 00:59:11;;;;;;;342.48;99.28;;;;;;;;;;5014335;28;20260;-63
2022/04/19 01:01:40;;;;;;;320.58;101.15;;;;;;;;;;5014266;28;20197;-63
2022/04/19 01:04:06;;;;;;;304.13;95.82;;;;;;;;;;5014400;28;20177;-63
2022/04/19 01:06:32;;;;;;;302.63;90.32;;;;;;;;;;5014632;28;20269;-63
2022/04/19 01:08:58;;;;;;;337.60;100.82;;;;;;;;;;5015406;28;20223;-63
2022/04/19 01:14:08;;;;;;;303.92;92.68;;;;;;;;;;5014357;28;20262;-63
2022/04/19 01:16:34;;;;;;;331.73;99.47;;;;;;;;;;5013978;28;20177;-63
2022/04/19 01:19:01;;;;;;;330.58;94.25;;;;;;;;;;5014193;28;20500;-63
2022/04/19 01:21:43;;;;;;;326.70;95.07;;;;;;;;;;5013731;28;20253;-63
2022/04/19 01:24:09;;;;;;;319.42;97.60;;;;;;;;;;5014173;28;20227;-63
2022/04/19 01:26:34;;;;;;;303.60;92.17;;;;;;;;;;5014031;28;20180;-63
2022/04/19 01:29:01;;;;;;;313.50;94.97;;;;;;;;;;5013921;28;20916;-63
2022/04/19 01:31:27;;;;;;;311.27;99.55;;;;;;;;;;5012906;28;20802;-62
2022/04/19 01:33:55;;;;;;;322.45;94.90;;;;;;;;;;5013703;28;20564;-62
2022/04/19 01:36:20;;;;;;;312.50;95.70;;;;;;;;;;5013559;28;20260;-63
2022/04/19 01:38:48;;;;;;;301.73;94.83;;;;;;;;;;5013609;28;20260;-63
2022/04/19 01:41:14;;;;;;;297.02;91.95;;;;;;;;;;5013541;28;20431;-63
2022/04/19 01:43:41;;;;;;;306.77;96.87;;;;;;;;;;5013687;28;20181;-63
2022/04/19 01:46:07;;;;;;;310.60;95.35;;;;;;;;;;5013598;28;20408;-63
2022/04/19 01:48:33;;;;;;;310.10;95.77;;;;;;;;;;5013564;28;20237;-63
2022/04/19 01:50:59;;;;;;;328.67;93.30;;;;;;;;;;5013219;28;20435;-63
2022/04/19 01:53:27;;;;;;;319.90;94.77;;;;;;;;;;5013425;28;20465;-63
2022/04/19 01:55:52;;;;;;;318.15;94.00;;;;;;;;;;5013467;28;20466;-63
2022/04/19 01:58:18;;;;;;;318.67;93.17;;;;;;;;;;5013301;28;20635;-63
2022/04/19 02:00:44;;;;;;;319.67;91.77;;;;;;;;;;5012928;28;20432;-63
2022/04/19 02:03:10;;;;;;;317.63;87.47;;;;;;;;;;5013162;28;20415;-62
2022/04/19 02:05:36;;;;;;;318.60;98.87;;;;;;;;;;5013294;28;20411;-63
2022/04/19 02:08:02;;;;;;;316.27;91.27;;;;;;;;;;5013183;28;20411;-63
2022/04/19 02:10:28;;;;;;;320.83;90.07;;;;;;;;;;5012784;28;20444;-63
2022/04/19 02:12:54;;;;;;;319.60;92.23;;;;;;;;;;5013034;28;20455;-63
2022/04/19 02:15:20;;;;;;;308.87;92.07;;;;;;;;;;5013060;28;20416;-63
2022/04/19 02:17:47;;;;;;;299.60;87.97;;;;;;;;;;5013204;28;20404;-63
2022/04/19 02:20:14;;;;;;;308.05;90.82;;;;;;;;;;5012496;28;20465;-63
2022/04/19 02:22:40;;;;;;;316.45;89.45;;;;;;;;;;5013028;28;20176;-63
2022/04/19 02:25:06;;;;;;;328.30;94.20;;;;;;;;;;5012838;28;20177;-63
2022/04/19 02:27:33;;;;;;;332.23;96.88;;;;;;;;;;5012762;28;20189;-63
2022/04/19 02:30:03;;;;;;;318.65;94.68;;;;;;;;;;5012663;28;20541;-62
2022/04/19 02:32:29;;;;;;;306.27;90.88;;;;;;;;;;5012745;28;20212;-63
2022/04/19 02:34:55;;;;;;;268.40;86.13;;;;;;;;;;5012074;28;20574;-62
2022/04/19 02:37:21;;;;;;;289.63;84.43;;;;;;;;;;5012664;28;20177;-63
2022/04/19 02:39:48;;;;;;;289.10;86.03;;;;;;;;;;5012596;28;20778;-63
2022/04/19 02:42:14;;;;;;;328.45;94.03;;;;;;;;;;5012424;28;20549;-62
2022/04/19 02:44:40;;;;;;;304.65;84.35;;;;;;;;;;5012956;28;20548;-63
2022/04/19 02:47:06;;;;;;;323.55;90.78;;;;;;;;;;5012813;28;20183;-63
2022/04/19 02:49:33;;;;;;;333.67;88.45;;;;;;;;;;5012498;28;20182;-63
2022/04/19 02:51:59;;;;;;;340.65;96.05;;;;;;;;;;5012140;28;20201;-63
2022/04/19 02:54:24;;;;;;;342.63;91.90;;;;;;;;;;5012266;28;20212;-63
2022/04/19 02:56:51;;;;;;;338.43;94.97;;;;;;;;;;5012392;28;20445;-63
2022/04/19 02:59:17;;;;;;;328.10;89.90;;;;;;;;;;5012415;28;20411;-63
2022/04/19 03:01:43;;;;;;;307.20;88.77;;;;;;;;;;5012230;28;20258;-63
2022/04/19 03:04:09;;;;;;;320.70;93.15;;;;;;;;;;5012664;28;20431;-63
2022/04/19 03:06:35;;;;;;;321.67;90.57;;;;;;;;;;5012396;28;20222;-63
2022/04/19 03:09:01;;;;;;;285.70;86.97;;;;;;;;;;5012316;28;20399;-63
2022/04/19 03:11:28;;;;;;;302.37;88.13;;;;;;;;;;5011891;28;20715;-63
2022/04/19 03:13:54;;;;;;;286.75;88.63;;;;;;;;;;5012137;28;20589;-63
2022/04/19 03:16:20;;;;;;;300.25;92.60;;;;;;;;;;5012222;28;20179;-63
2022/04/19 03:18:47;;;;;;;319.15;92.50;;;;;;;;;;5011952;28;20187;-63
2022/04/19 03:21:13;;;;;;;352.05;94.78;;;;;;;;;;5010361;28;20235;-63
2022/04/19 03:29:10;;;;;;;341.77;94.78;;;;;;;;;;5012353;28;20206;-62
2022/04/19 03:31:36;;;;;;;265.00;86.57;;;;;;;;;;5011946;28;20680;-63
2022/04/19 03:34:03;;;;;;;264.20;83.13;;;;;;;;;;5011830;28;20205;-63
2022/04/19 03:36:29;;;;;;;333.50;93.20;;;;;;;;;;5011784;28;20517;-63
2022/04/19 03:38:55;;;;;;;263.52;83.07;;;;;;;;;;5011885;28;20191;-63
2022/04/19 03:41:22;;;;;;;333.23;89.93;;;;;;;;;;5011571;28;20275;-63
2022/04/19 03:43:48;;;;;;;335.20;89.95;;;;;;;;;;5011827;28;20200;-63
2022/04/19 03:46:14;;;;;;;329.05;90.13;;;;;;;;;;5014347;28;20207;-62
2022/04/19 03:48:40;;;;;;;330.50;92.67;;;;;;;;;;5015837;28;20235;-63
2022/04/19 03:51:06;;;;;;;331.80;91.78;;;;;;;;;;5015501;28;20741;-63
2022/04/19 03:53:32;;;;;;;290.20;85.27;;;;;;;;;;5015714;28;20285;-63
2022/04/19 03:56:03;;;;;;;230.23;77.75;;;;;;;;;;5015725;28;20417;-64
2022/04/19 03:58:30;;;;;;;243.02;77.22;;;;;;;;;;5015788;28;20163;-63
2022/04/19 04:00:56;;;;;;;310.50;91.38;;;;;;;;;;5015407;28;20197;-63
2022/04/19 04:03:22;;;;;;;326.98;96.22;;;;;;;;;;5015147;28;20267;-63
2022/04/19 04:05:49;;;;;;;322.33;91.65;;;;;;;;;;5015374;28;20690;-63
2022/04/19 04:08:15;;;;;;;313.52;89.53;;;;;;;;;;5015542;28;20177;-63
2022/04/19 04:10:41;;;;;;;307.10;89.17;;;;;;;;;;5015144;28;20562;-63
2022/04/19 04:13:07;;;;;;;263.25;82.68;;;;;;;;;;5015060;28;20443;-63
2022/04/19 04:15:33;;;;;;;249.25;81.93;;;;;;;;;;5015235;28;20179;-63
2022/04/19 04:17:59;;;;;;;293.48;88.07;;;;;;;;;;5015390;28;20174;-63
2022/04/19 04:20:25;;;;;;;310.20;89.20;;;;;;;;;;5014795;28;20202;-63
2022/04/19 04:22:51;;;;;;;260.90;82.82;;;;;;;;;;5015527;28;20423;-63
2022/04/19 04:25:17;;;;;;;246.00;81.27;;;;;;;;;;5015209;28;20537;-62
2022/04/19 04:27:43;;;;;;;244.67;78.03;;;;;;;;;;5014910;28;20492;-63
2022/04/19 04:30:09;;;;;;;228.13;76.57;;;;;;;;;;5014884;28;20407;-62
2022/04/19 04:32:35;;;;;;;228.32;83.13;;;;;;;;;;5014455;28;20489;-62
2022/04/19 04:35:01;;;;;;;238.30;81.47;;;;;;;;;;5014769;28;20278;-63
2022/04/19 04:37:27;;;;;;;237.37;77.50;;;;;;;;;;5015007;28;20403;-63
2022/04/19 04:39:53;;;;;;;231.83;72.70;;;;;;;;;;5014937;28;20397;-63
2022/04/19 04:42:19;;;;;;;243.15;78.00;;;;;;;;;;5014687;28;20446;-62
2022/04/19 04:44:45;;;;;;;230.70;75.77;;;;;;;;;;5014931;28;20602;-64
2022/04/19 04:49:59;;;;;;;233.95;76.90;;;;;;;;;;5014891;28;20402;-63
2022/04/19 04:52:25;;;;;;;221.77;74.07;;;;;;;;;;5014928;28;20195;-64
2022/04/19 04:54:51;;;;;;;226.13;72.80;;;;;;;;;;5014703;28;20402;-63
2022/04/19 04:57:18;;;;;;;236.63;76.77;;;;;;;;;;5013943;28;20908;-63
2022/04/19 04:59:47;;;;;;;237.88;79.57;;;;;;;;;;5014518;28;20406;-63
2022/04/19 05:02:13;;;;;;;234.80;76.35;;;;;;;;;;5014325;28;20191;-63
2022/04/19 05:04:38;;;;;;;240.32;76.18;;;;;;;;;;5014414;28;20170;-63
2022/04/19 05:07:05;;;;;;;239.67;76.97;;;;;;;;;;5014434;28;20659;-62
2022/04/19 05:09:31;;;;;;;235.60;74.95;;;;;;;;;;5014266;28;20918;-63
2022/04/19 05:11:57;;;;;;;240.18;79.07;;;;;;;;;;5013974;28;20213;-63
2022/04/19 05:14:23;;;;;;;238.27;76.47;;;;;;;;;;5014026;28;20254;-63
2022/04/19 05:16:49;;;;;;;243.98;77.03;;;;;;;;;;5014135;28;20418;-63
2022/04/19 05:19:15;;;;;;;232.73;75.72;;;;;;;;;;5014228;28;20165;-63
2022/04/19 05:21:41;;;;;;;247.07;78.40;;;;;;;;;;5013702;28;20221;-63
2022/04/19 05:24:08;;;;;;;243.55;77.95;;;;;;;;;;5014044;28;20449;-63
2022/04/19 05:26:35;;;;;;;218.07;77.57;;;;;;;;;;5014278;28;20236;-63
2022/04/19 05:29:01;;;;;;;211.68;76.85;;;;;;;;;;5013877;28;20187;-63
2022/04/19 05:31:27;;;;;;;218.05;76.53;;;;;;;;;;5013552;28;20234;-63
2022/04/19 05:33:53;;;;;;;221.30;76.03;;;;;;;;;;5013118;28;20222;-63
2022/04/19 05:36:19;;;;;;;223.00;76.37;;;;;;;;;;5013680;28;20424;-63
2022/04/19 05:38:45;;;;;;;226.50;77.43;;;;;;;;;;5013507;28;20411;-63
2022/04/19 05:41:11;;;;;;;214.65;76.22;;;;;;;;;;5013441;28;20201;-63
2022/04/19 05:43:37;;;;;;;210.83;74.97;;;;;;;;;;5013375;28;20223;-63
2022/04/19 05:46:03;;;;;;;224.32;76.78;;;;;;;;;;5013671;28;20918;-63
2022/04/19 05:48:29;;;;;;;226.85;77.93;;;;;;;;;;5013551;28;20179;-63
2022/04/19 05:50:55;;;;;;;229.10;76.13;;;;;;;;;;5013312;28;20237;-63
2022/04/19 05:53:21;;;;;;;229.63;76.50;;;;;;;;;;5013607;28;20517;-63
2022/04/19 05:55:47;;;;;;;236.93;79.80;;;;;;;;;;5013276;28;20295;-63
2022/04/19 05:58:13;;;;;;;221.70;77.37;;;;;;;;;;5013445;28;20192;-62
2022/04/19 06:00:40;;;;;;;221.80;80.82;;;;;;;;;;5013034;28;20450;-63
2022/04/19 06:05:50;;;;;;;245.77;77.90;;;;;;;;;;5011410;28;20527;-62
2022/04/19 06:08:16;;;;;;;248.90;82.68;;;;;;;;;;5011428;28;20180;-63
2022/04/19 06:10:42;;;;;;;226.80;86.00;;;;;;;;;;5010934;28;20208;-63
2022/04/19 06:13:08;;;;;;;230.63;78.35;;;;;;;;;;5011500;28;20276;-63
2022/04/19 06:15:37;;;;;;;235.80;82.65;;;;;;;;;;5011754;28;20197;-62
2022/04/19 06:18:03;;;;;;;234.88;78.95;;;;;;;;;;5011761;28;20250;-62
2022/04/19 06:20:29;;;;;;;234.33;83.47;;;;;;;;;;5011340;28;20314;-62
2022/04/19 06:22:55;;;;;;;220.20;82.07;;;;;;;;;;5011521;28;20427;-62
2022/04/19 06:25:21;;;;;;;213.63;79.77;;;;;;;;;;5011594;28;20416;-62
2022/04/19 06:27:47;;;;;;;215.60;81.13;;;;;;;;;;5011575;28;20454;-62
2022/04/19 06:30:14;;;;;;;227.85;85.97;;;;;;;;;;5010585;28;20420;-62
2022/04/19 06:32:42;;;;;;;227.38;83.57;;;;;;;;;;5011216;28;20233;-62
2022/04/19 06:35:11;;;;;;;228.20;86.00;;;;;;;;;;5011525;28;20698;-62
2022/04/19 06:37:37;;;;;;;232.38;90.95;;;;;;;;;;5011269;28;20208;-62
2022/04/19 06:40:06;;;;;;;225.17;86.77;;;;;;;;;;5008780;28;20204;-62
2022/04/19 06:42:32;;;;;;;233.18;89.63;;;;;;;;;;5013253;28;20423;-62
2022/04/19 06:44:58;;;;;;;231.38;89.95;;;;;;;;;;5010802;28;20708;-62
2022/04/19 06:47:25;;;;;;;239.65;98.32;;;;;;;;;;5010719;28;20165;-62
2022/04/19 06:49:52;;;;;;;242.32;98.70;;;;;;;;;;5015376;28;20756;-62
2022/04/19 06:52:18;;;;;;;285.70;106.40;;;;;;;;;;5009150;28;20212;-63
2022/04/19 06:54:44;;;;;;;273.00;108.93;;;;;;;;;;5008026;28;20536;-63
2022/04/19 06:57:10;;;;;;;271.40;105.97;;;;;;;;;;5009666;28;21062;-63
2022/04/19 06:59:36;;;;;;;259.23;111.70;;;;;;;;;;5010892;28;20439;-64
2022/04/19 07:02:01;;;;;;;252.17;106.97;;;;;;;;;;5010637;28;20202;-63
2022/04/19 07:04:27;;;;;;;277.77;115.13;;;;;;;;;;5007653;28;20517;-63
2022/04/19 07:06:53;;;;;;;284.83;119.03;;;;;;;;;;5011176;28;20791;-63
2022/04/19 07:09:20;;;;;;;334.07;123.17;;;;;;;;;;5012094;28;20173;-63
2022/04/19 07:11:46;;;;;;;347.65;131.15;;;;;;;;;;5011170;28;20999;-63
2022/04/19 07:14:12;;;;;;;300.60;124.27;;;;;;;;;;5011179;28;20288;-63
2022/04/19 07:16:38;;;;;;;283.77;122.37;;;;;;;;;;5010846;28;20421;-63
2022/04/19 07:19:04;;;;;;;380.17;136.03;;;;;;;;;;5011179;28;20911;-63
2022/04/19 07:26:37;;;;;;;392.05;139.27;;;;;;;;;;5011125;28;20844;-63
2022/04/19 07:27:12;;;;;;;391.17;137.05;;;;;;;;;;5010155;28;20200;-63
2022/04/19 07:29:38;;;;;;;410.33;150.57;;;;;;;;;;5010439;28;20181;-63
2022/04/19 07:32:05;;;;;;;396.38;145.35;;;;;;;;;;5009795;28;20438;-63
2022/04/19 07:34:31;;;;;;;400.92;147.75;;;;;;;;;;5011685;28;20270;-63
2022/04/19 07:36:57;;;;;;;409.47;153.13;;;;;;;;;;5011296;28;20613;-63
2022/04/19 07:39:23;;;;;;;406.97;149.30;;;;;;;;;;5011528;28;20413;-63
2022/04/19 07:41:49;;;;;;;348.03;151.80;;;;;;;;;;5010845;28;20432;-63
2022/04/19 07:44:15;;;;;;;414.27;164.03;;;;;;;;;;5010175;28;20418;-63
2022/04/19 07:46:44;;;;;;;411.02;161.30;;;;;;;;;;5010504;28;20416;-63
2022/04/19 07:49:10;;;;;;;406.20;169.70;;;;;;;;;;5010052;28;20177;-63
2022/04/19 07:51:36;;;;;;;383.95;166.00;;;;;;;;;;5009885;28;20224;-63
2022/04/19 07:54:03;;;;;;;376.88;172.93;;;;;;;;;;5010142;28;20233;-63
2022/04/19 07:56:29;;;;;;;426.88;189.70;;;;;;;;;;5010309;28;20522;-63
2022/04/19 07:58:55;;;;;;;374.88;192.63;;;;;;;;;;5009616;28;20217;-63
2022/04/19 08:01:21;;;;;;;393.98;204.25;;;;;;;;;;5010121;28;20191;-63
2022/04/19 08:03:47;;;;;;;365.23;218.13;;;;;;;;;;5011240;28;20209;-63
2022/04/19 08:06:13;;;;;;;404.17;218.93;;;;;;;;;;5011393;28;20222;-64
2022/04/19 08:08:42;;;;;;;432.33;252.40;;;;;;;;;;5012002;28;20405;-64
2022/04/19 08:11:08;;;;;;;466.80;304.10;;;;;;;;;;5010580;28;20432;-64
2022/04/19 08:13:34;;;;;;;487.73;350.83;;;;;;;;;;5016493;28;20695;-64
2022/04/19 08:16:00;;;;;;;506.42;400.33;;;;;;;;;;5031020;28;20752;-64
2022/04/19 08:18:26;;;;;;;554.63;496.43;;;;;;;;;;5031105;28;20191;-64
2022/04/19 08:20:52;;;;;;;606.50;547.50;;;;;;;;;;5030209;28;20667;-64
2022/04/19 08:23:18;;;;;;;646.17;586.57;;;;;;;;;;5030875;28;20412;-64
2022/04/19 08:25:44;;;;;;;702.93;642.27;;;;;;;;;;5031644;28;20526;-62
2022/04/19 08:28:10;;;;;;;747.70;686.00;;;;;;;;;;5030808;28;20400;-63
2022/04/19 08:30:36;;;;;;;774.40;712.20;;;;;;;;;;5030632;28;20792;-63
2022/04/19 08:33:02;;;;;;;809.53;746.50;;;;;;;;;;5032728;28;20508;-63
2022/04/19 08:35:28;;;;;;;813.63;750.67;;;;;;;;;;5034638;28;20464;-64
2022/04/19 08:37:54;;;;;;;863.00;798.90;;;;;;;;;;5034297;28;20506;-63
2022/04/19 08:40:21;;;;;;;897.70;832.50;;;;;;;;;;5034298;28;20412;-63
2022/04/19 08:42:47;;;;;;;922.37;856.60;;;;;;;;;;5034262;28;20417;-63
2022/04/19 08:45:14;;;;;;;917.67;852.20;;;;;;;;;;5022101;28;20416;-63
2022/04/19 08:47:41;;;;;;;948.83;882.27;;;;;;;;;;5013516;28;20507;-63
2022/04/19 08:50:10;;;;;;;974.27;906.80;;;;;;;;;;5013108;28;20420;-63
2022/04/19 08:52:36;;;;;;;987.87;920.10;;;;;;;;;;5013294;28;20443;-64
2022/04/19 08:57:47;;;;;;;977.97;911.10;;;;;;;;;;5013143;28;20411;-62
2022/04/19 09:00:13;;;;;;;990.20;922.53;;;;;;;;;;5012995;28;20431;-63
2022/04/19 09:02:39;;;;;;;1010.37;942.10;;;;;;;;;;5013564;28;20415;-64
2022/04/19 09:05:12;;;;;;;1016.40;948.00;;;;;;;;;;5013706;28;20405;-64
2022/04/19 09:07:39;;;;;;;1003.07;935.27;;;;;;;;;;5013121;28;20420;-63
2022/04/19 09:10:06;;;;;;;1025.17;956.67;;;;;;;;;;5013527;28;20424;-64
2022/04/19 09:12:32;;;;;;;1023.53;955.23;;;;;;;;;;5013075;28;20413;-64
2022/04/19 09:15:00;;;;;;;997.90;930.20;;;;;;;;;;5013706;28;20422;-64
2022/04/19 09:17:33;;;;;;;1009.47;941.60;;;;;;;;;;5013448;28;20407;-64
2022/04/19 09:20:18;;;;;;;1014.10;946.13;;;;;;;;;;5013864;28;20405;-64
2022/04/19 09:22:44;;;;;;;1006.87;939.17;;;;;;;;;;5013954;28;20413;-63
2022/04/19 09:25:17;;;;;;;1015.23;947.17;;;;;;;;;;5013889;28;20479;-64
2022/04/19 09:27:44;;;;;;;1026.47;958.07;;;;;;;;;;5013769;28;20556;-64
2022/04/19 09:30:18;;;;;;;1027.33;958.83;;;;;;;;;;5013378;28;20784;-64
2022/04/19 09:33:03;;;;;;;1022.60;954.40;;;;;;;;;;5012657;28;20935;-63
2022/04/19 09:35:30;;;;;;;1022.77;954.50;;;;;;;;;;5011989;28;20437;-65
2022/04/19 09:37:56;;;;;;;1028.43;960.03;;;;;;;;;;5012792;28;20425;-63
2022/04/19 09:40:29;;;;;;;1008.97;941.67;;;;;;;;;;5027933;28;20420;-63
2022/04/19 09:42:55;;;;;;;1014.30;946.53;;;;;;;;;;5026588;28;20432;-63
2022/04/19 09:45:23;;;;;;;1016.63;949.03;;;;;;;;;;5013247;28;20828;-63
2022/04/19 09:47:54;;;;;;;1004.53;937.13;;;;;;;;;;5013244;28;20917;-63
2022/04/19 09:50:21;;;;;;;993.17;925.37;;;;;;;;;;5011737;28;20421;-63
2022/04/19 09:52:50;;;;;;;1005.43;937.77;;;;;;;;;;5011606;28;20835;-64
2022/04/19 09:55:16;;;;;;;994.60;927.40;;;;;;;;;;5012921;28;20416;-63
2022/04/19 09:57:47;;;;;;;1010.30;942.30;;;;;;;;;;5012387;28;20781;-63
2022/04/19 10:00:17;;;;;;;986.60;919.40;;;;;;;;;;5012997;28;20486;-63
2022/04/19 10:08:19;;;;;;;964.10;897.77;;;;;;;;;;5011632;28;20526;-63
2022/04/19 10:10:45;;;;;;;981.87;915.07;;;;;;;;;;5010578;28;20448;-63
2022/04/19 10:13:13;;;;;;;963.23;897.57;;;;;;;;;;5018383;28;20464;-63
2022/04/19 10:15:40;;;;;;;975.37;909.20;;;;;;;;;;5012652;28;20412;-63
2022/04/19 10:18:06;;;;;;;962.63;896.60;;;;;;;;;;5010866;28;20439;-63
2022/04/19 10:20:33;;;;;;;958.03;892.17;;;;;;;;;;5010357;28;20532;-63
2022/04/19 10:23:08;;;;;;;947.27;881.90;;;;;;;;;;5008413;28;20432;-63
2022/04/19 10:25:36;;;;;;;944.23;878.67;;;;;;;;;;5012376;28;20816;-63
2022/04/19 10:28:05;;;;;;;962.30;896.03;;;;;;;;;;5011916;28;20424;-63
2022/04/19 10:30:33;;;;;;;961.90;895.53;;;;;;;;;;5012308;28;20478;-63
2022/04/19 10:33:00;;;;;;;956.30;889.97;;;;;;;;;;5012037;28;20548;-63
2022/04/19 10:35:26;;;;;;;922.77;857.20;;;;;;;;;;5012473;28;20406;-63
2022/04/19 10:38:11;;;;;;;926.27;860.90;;;;;;;;;;5010252;28;20423;-63
2022/04/19 10:40:53;;;;;;;924.53;859.17;;;;;;;;;;5011979;28;21199;-62
2022/04/19 10:43:20;;;;;;;925.57;860.17;;;;;;;;;;5012338;28;20415;-63
2022/04/19 10:45:47;;;;;;;906.17;841.50;;;;;;;;;;5012015;28;20921;-63
2022/04/19 10:48:14;;;;;;;926.57;861.40;;;;;;;;;;5011207;28;20421;-63
2022/04/19 10:50:44;;;;;;;916.60;851.70;;;;;;;;;;5011434;28;20435;-63
2022/04/19 10:53:13;;;;;;;907.27;842.73;;;;;;;;;;5012396;28;20826;-63
2022/04/19 10:55:40;;;;;;;917.77;852.70;;;;;;;;;;5018589;28;20461;-63
2022/04/19 10:58:07;;;;;;;913.17;848.47;;;;;;;;;;5021039;28;20900;-63
2022/04/19 11:00:35;;;;;;;921.67;856.57;;;;;;;;;;5010614;28;20456;-63
2022/04/19 11:03:02;;;;;;;933.73;868.47;;;;;;;;;;5010975;28;20917;-63
2022/04/19 11:05:41;;;;;;;934.03;868.77;;;;;;;;;;5010848;28;20493;-63
2022/04/19 11:08:25;;;;;;;907.30;842.70;;;;;;;;;;5010636;28;20409;-63
2022/04/19 11:10:57;;;;;;;912.53;847.73;;;;;;;;;;5008444;28;20445;-63
2022/04/19 11:13:26;;;;;;;910.40;845.73;;;;;;;;;;5007732;28;20461;-62
2022/04/19 11:15:58;;;;;;;885.53;821.20;;;;;;;;;;5010606;28;20472;-62
2022/04/19 11:18:24;;;;;;;894.90;830.43;;;;;;;;;;5008224;28;20412;-63
2022/04/19 11:20:51;;;;;;;879.13;815.10;;;;;;;;;;5009445;28;20464;-63
2022/04/19 11:23:18;;;;;;;834.13;771.37;;;;;;;;;;5010627;28;20416;-63
2022/04/19 11:25:45;;;;;;;828.03;765.37;;;;;;;;;;5008123;28;20412;-63
2022/04/19 11:28:11;;;;;;;807.50;745.23;;;;;;;;;;5010608;28;20806;-63
2022/04/19 11:31:07;;;;;;;801.77;739.47;;;;;;;;;;5010149;28;20800;-63
2022/04/19 11:33:34;;;;;;;800.07;737.90;;;;;;;;;;5001116;28;20551;-63
2022/04/19 11:36:19;;;;;;;794.13;732.23;;;;;;;;;;5010246;28;20417;-63
2022/04/19 11:38:46;;;;;;;800.90;738.77;;;;;;;;;;5010250;28;20424;-63
2022/04/19 11:46:45;;;;;;;800.30;738.23;;;;;;;;;;5010258;28;20404;-63
2022/04/19 11:49:27;;;;;;;811.40;749.40;;;;;;;;;;5010405;28;20419;-63
2022/04/19 11:51:54;;;;;;;800.70;738.80;;;;;;;;;;5009134;28;20428;-62
2022/04/19 11:54:21;;;;;;;826.07;763.60;;;;;;;;;;5010271;28;20464;-63
2022/04/19 11:56:52;;;;;;;803.50;741.63;;;;;;;;;;5010387;28;20447;-63
2022/04/19 11:59:18;;;;;;;789.43;727.67;;;;;;;;;;5007858;28;20466;-63
2022/04/19 12:01:53;;;;;;;715.07;654.87;;;;;;;;;;5009114;28;20447;-63
2022/04/19 12:04:19;;;;;;;720.47;660.07;;;;;;;;;;5008561;28;20415;-63
2022/04/19 12:06:57;;;;;;;697.73;637.83;;;;;;;;;;5009399;28;20476;-64
2022/04/19 12:09:28;;;;;;;651.77;592.63;;;;;;;;;;5014013;28;20428;-63
2022/04/19 12:11:54;;;;;;;646.77;587.77;;;;;;;;;;5012282;28;20475;-63
2022/04/19 12:14:38;;;;;;;630.90;574.50;;;;;;;;;;5013662;28;20475;-63
2022/04/19 12:17:06;;;;;;;604.27;552.17;;;;;;;;;;5013520;28;20408;-63
2022/04/19 12:19:34;;;;;;;574.10;518.93;;;;;;;;;;5013956;28;20412;-63
2022/04/19 12:22:00;;;;;;;565.13;507.73;;;;;;;;;;5013495;28;21276;-63
2022/04/19 12:24:28;;;;;;;588.67;530.73;;;;;;;;;;5015272;28;20424;-63
2022/04/19 12:27:05;;;;;;;577.87;520.07;;;;;;;;;;5015184;28;20923;-63
2022/04/19 12:29:31;;;;;;;536.30;479.40;;;;;;;;;;5015023;28;20404;-63
2022/04/19 12:31:58;;;;;;;556.13;498.87;;;;;;;;;;5014836;28;20445;-63
2022/04/19 12:34:34;;;;;;;564.83;507.47;;;;;;;;;;5014872;28;20514;-63
2022/04/19 12:37:06;;;;;;;544.57;487.43;;;;;;;;;;5015029;28;20470;-63
2022/04/19 12:39:32;;;;;;;554.77;497.47;;;;;;;;;;5014859;28;21026;-63
2022/04/19 12:42:07;;;;;;;558.93;501.50;;;;;;;;;;5049036;22;20594;-62
2022/04/19 12:44:35;;;;;;;531.43;474.73;;;;;;;;;;5053378;28;20421;-61
2022/04/19 12:47:04;;;;;;;553.33;495.97;;;;;;;;;;5052358;28;20402;-61
2022/04/19 12:49:31;;;;;;;548.50;491.07;;;;;;;;;;5052270;28;20402;-62
2022/04/19 12:52:05;;;;;;;513.00;456.50;;;;;;;;;;5052002;28;20406;-62
2022/04/19 12:54:32;;;;;;;519.33;462.47;;;;;;;;;;5052387;28;20521;-60
2022/04/19 12:57:02;;;;;;;524.53;467.60;;;;;;;;;;5052242;28;20419;-62
2022/04/19 12:59:29;;;;;;;533.23;476.33;;;;;;;;;;5052423;28;20405;-62
2022/04/19 13:01:55;;;;;;;540.50;483.47;;;;;;;;;;5053111;28;20505;-61
2022/04/19 13:04:21;;;;;;;506.73;444.87;;;;;;;;;;5053918;28;20480;-61
2022/04/19 13:12:24;;;;;;;511.97;453.80;;;;;;;;;;5053377;28;20437;-62
2022/04/19 13:14:52;;;;;;;506.63;435.43;;;;;;;;;;5052711;28;20560;-61
2022/04/19 13:17:18;;;;;;;500.13;415.20;;;;;;;;;;5050846;28;20418;-61
2022/04/19 13:19:45;;;;;;;500.90;429.70;;;;;;;;;;5053367;28;20438;-60
2022/04/19 13:22:11;;;;;;;506.13;437.83;;;;;;;;;;5053526;28;20510;-61
2022/04/19 13:24:38;;;;;;;507.27;437.87;;;;;;;;;;5053743;28;20413;-61
2022/04/19 13:27:06;;;;;;;508.60;446.40;;;;;;;;;;5053532;28;20759;-61
2022/04/19 13:29:32;;;;;;;504.43;429.50;;;;;;;;;;5053427;28;20460;-62
2022/04/19 13:31:58;;;;;;;505.47;443.93;;;;;;;;;;5035508;28;20454;-61
2022/04/19 13:34:24;;;;;;;507.47;446.70;;;;;;;;;;5053381;28;20497;-62
2022/04/19 13:36:51;;;;;;;507.33;438.97;;;;;;;;;;5053407;28;20469;-59
2022/04/19 13:39:17;;;;;;;507.47;445.00;;;;;;;;;;5053263;28;20809;-62
2022/04/19 13:41:43;;;;;;;501.83;435.53;;;;;;;;;;5052754;28;20941;-61
2022/04/19 13:44:12;;;;;;;505.40;440.87;;;;;;;;;;5053550;28;20770;-60
2022/04/19 13:46:39;;;;;;;500.27;412.83;;;;;;;;;;5053273;28;20410;-61
2022/04/19 13:49:05;;;;;;;499.00;405.95;;;;;;;;;;5053142;28;20958;-61
2022/04/19 13:51:32;;;;;;;505.50;428.97;;;;;;;;;;5052617;28;20208;-62
2022/04/19 13:53:58;;;;;;;500.55;403.80;;;;;;;;;;5052991;28;20937;-62
2022/04/19 13:56:24;;;;;;;499.23;404.98;;;;;;;;;;5052713;28;20199;-61
2022/04/19 13:58:50;;;;;;;503.03;414.47;;;;;;;;;;5053008;28;20200;-61
2022/04/19 14:01:16;;;;;;;503.33;420.30;;;;;;;;;;5051621;28;20849;-62
2022/04/19 14:03:42;;;;;;;504.67;420.33;;;;;;;;;;5050799;28;20426;-61
2022/04/19 14:06:08;;;;;;;506.80;431.57;;;;;;;;;;5049329;28;20180;-61
2022/04/19 14:08:34;;;;;;;504.63;418.03;;;;;;;;;;5052531;28;20413;-61
2022/04/19 14:11:00;;;;;;;502.93;415.20;;;;;;;;;;5052146;28;20411;-61
2022/04/19 14:13:28;;;;;;;498.38;387.17;;;;;;;;;;5051583;28;20473;-61
2022/04/19 14:15:54;;;;;;;438.87;380.07;;;;;;;;;;5052448;28;20597;-62
2022/04/19 14:18:20;;;;;;;494.23;375.00;;;;;;;;;;5052574;28;20438;-61
2022/04/19 14:20:50;;;;;;;494.13;376.27;;;;;;;;;;5050221;28;20723;-61
2022/04/19 14:23:16;;;;;;;499.65;389.98;;;;;;;;;;5049341;28;20204;-61
2022/04/19 14:25:42;;;;;;;494.85;383.40;;;;;;;;;;5050453;28;20191;-61
2022/04/19 14:28:08;;;;;;;497.15;386.10;;;;;;;;;;5052323;28;20172;-61
2022/04/19 14:33:19;;;;;;;406.97;362.33;;;;;;;;;;5049864;28;20250;-62
2022/04/19 14:35:46;;;;;;;433.83;386.40;;;;;;;;;;5049759;28;20411;-61